createdAt,value
2019-02-12T00:01:56.157Z,17.07
2019-02-12T00:04:23.877Z,23.73
2019-02-12T00:06:51.585Z,21.90
2019-02-12T00:09:19.305Z,19.57
2019-02-12T00:11:47.034Z,15.60
2019-02-12T00:14:14.749Z,17.93
2019-02-12T00:16:42.502Z,18.30
2019-02-12T00:19:10.234Z,18.90
2019-02-12T00:21:37.945Z,16.20
2019-02-12T00:24:05.680Z,18.17
2019-02-12T00:26:33.409Z,16.77
2019-02-12T00:29:01.133Z,16.13
2019-02-12T00:31:28.858Z,19.03
2019-02-12T00:33:56.597Z,16.73
2019-02-12T00:36:24.322Z,17.70
2019-02-12T00:38:52.030Z,17.03
2019-02-12T00:41:19.744Z,13.37
2019-02-12T00:43:47.462Z,17.00
2019-02-12T00:46:15.185Z,12.03
2019-02-12T00:48:42.901Z,13.23
2019-02-12T00:51:17.522Z,18.83
2019-02-12T00:53:40.153Z,12.93
2019-02-12T00:56:07.893Z,13.90
2019-02-12T00:58:35.609Z,14.40
2019-02-12T01:01:03.329Z,13.20
2019-02-12T01:03:31.043Z,14.23
2019-02-12T01:05:58.776Z,12.13
2019-02-12T01:08:26.477Z,16.93
2019-02-12T01:10:54.205Z,12.20
2019-02-12T01:13:21.909Z,14.00
2019-02-12T01:15:49.643Z,12.20
2019-02-12T01:18:17.344Z,14.23
2019-02-12T01:20:45.070Z,16.93
2019-02-12T01:23:12.771Z,15.77
2019-02-12T01:25:40.505Z,10.07
2019-02-12T01:28:08.277Z,12.33
2019-02-12T01:30:36.020Z,12.40
2019-02-12T01:33:03.717Z,13.40
2019-02-12T01:35:31.473Z,12.70
2019-02-12T01:37:59.188Z,22.07
2019-02-12T01:40:26.890Z,18.40
2019-02-12T01:42:54.619Z,16.83
2019-02-12T01:45:22.317Z,18.53
2019-02-12T01:47:50.054Z,21.73
2019-02-12T01:50:17.755Z,16.17
2019-02-12T01:52:45.472Z,17.27
2019-02-12T01:55:13.173Z,13.93
2019-02-12T01:57:40.901Z,16.47
2019-02-12T02:00:10.954Z,14.00
2019-02-12T02:02:38.675Z,15.20
2019-02-12T02:05:07.233Z,26.20
2019-02-12T02:07:34.964Z,20.97
2019-02-12T02:10:04.105Z,21.83
2019-02-12T02:12:31.844Z,21.13
2019-02-12T02:14:59.554Z,21.13
2019-02-12T02:17:27.269Z,17.37
2019-02-12T02:19:54.973Z,18.40
2019-02-12T02:22:22.745Z,19.17
2019-02-12T02:24:50.440Z,15.97
2019-02-12T02:27:18.176Z,15.70
2019-02-12T02:29:45.943Z,18.87
2019-02-12T02:32:13.668Z,18.43
2019-02-12T02:34:41.370Z,17.03
2019-02-12T02:37:09.096Z,13.60
2019-02-12T02:39:36.807Z,17.30
2019-02-12T02:42:04.517Z,16.37
2019-02-12T02:44:32.237Z,14.13
2019-02-12T02:46:59.930Z,13.93
2019-02-12T02:49:27.629Z,21.17
2019-02-12T02:51:55.361Z,14.07
2019-02-12T02:54:23.061Z,15.60
2019-02-12T02:56:50.765Z,12.73
2019-02-12T02:59:18.524Z,12.40
2019-02-12T03:01:46.236Z,13.37
2019-02-12T03:04:14.009Z,15.20
2019-02-12T03:06:41.773Z,14.03
2019-02-12T03:09:09.498Z,17.10
2019-02-12T03:11:37.205Z,21.97
2019-02-12T03:14:04.926Z,18.00
2019-02-12T03:16:32.645Z,17.53
2019-02-12T03:19:00.386Z,19.47
2019-02-12T03:21:28.099Z,22.27
2019-02-12T03:23:55.829Z,25.00
2019-02-12T03:26:23.565Z,18.63
2019-02-12T03:28:51.305Z,19.03
2019-02-12T03:31:19.022Z,17.87
2019-02-12T03:33:46.759Z,21.50
2019-02-12T03:36:14.465Z,23.50
2019-02-12T03:38:42.188Z,17.33
2019-02-12T03:41:09.906Z,16.47
2019-02-12T03:43:37.642Z,18.40
2019-02-12T03:46:05.350Z,18.83
2019-02-12T03:48:33.105Z,18.57
2019-02-12T03:51:00.833Z,19.73
2019-02-12T03:53:28.565Z,12.40
2019-02-12T03:55:56.281Z,11.03
2019-02-12T03:58:24.006Z,13.70
2019-02-12T04:00:51.713Z,12.03
2019-02-12T04:03:19.466Z,20.03
2019-02-12T04:05:47.183Z,16.63
2019-02-12T04:08:14.901Z,19.73
2019-02-12T04:10:42.629Z,18.13
2019-02-12T04:13:10.354Z,17.57
2019-02-12T04:15:38.194Z,19.70
2019-02-12T04:18:05.898Z,17.23
2019-02-12T04:20:33.625Z,16.57
2019-02-12T04:23:01.317Z,14.40
2019-02-12T04:25:29.047Z,19.80
2019-02-12T04:27:56.787Z,15.40
2019-02-12T04:30:24.587Z,16.13
2019-02-12T04:32:52.306Z,15.67
2019-02-12T04:35:20.063Z,13.40
2019-02-12T04:37:47.824Z,12.73
2019-02-12T04:40:15.549Z,17.93
2019-02-12T04:42:43.265Z,18.50
2019-02-12T04:45:11.003Z,20.77
2019-02-12T04:47:38.713Z,17.67
2019-02-12T04:50:07.317Z,17.80
2019-02-12T04:52:35.024Z,14.10
2019-02-12T04:55:02.759Z,15.30
2019-02-12T04:57:30.466Z,12.30
2019-02-12T04:59:58.193Z,17.03
2019-02-12T05:02:25.918Z,12.40
2019-02-12T05:04:53.664Z,17.53
2019-02-12T05:07:21.366Z,11.40
2019-02-12T05:09:51.453Z,14.30
2019-02-12T05:12:20.503Z,11.97
2019-02-12T05:14:48.232Z,11.97
2019-02-12T05:17:15.953Z,17.40
2019-02-12T05:19:43.670Z,13.87
2019-02-12T05:22:11.427Z,12.77
2019-02-12T05:24:39.151Z,15.63
2019-02-12T05:27:06.890Z,12.23
2019-02-12T05:29:34.597Z,13.20
2019-02-12T05:32:02.399Z,15.73
2019-02-12T05:34:30.123Z,12.17
2019-02-12T05:36:57.852Z,13.33
2019-02-12T05:39:25.594Z,12.93
2019-02-12T05:41:53.317Z,12.00
2019-02-12T05:44:21.031Z,10.97
2019-02-12T05:46:48.769Z,10.43
2019-02-12T05:49:16.496Z,13.07
2019-02-12T05:51:44.221Z,11.47
2019-02-12T05:54:11.957Z,14.50
2019-02-12T05:56:39.694Z,10.07
2019-02-12T05:59:07.401Z,18.87
2019-02-12T06:01:35.121Z,21.57
2019-02-12T06:04:02.859Z,21.43
2019-02-12T06:06:30.566Z,35.03
2019-02-12T06:08:58.324Z,25.37
2019-02-12T06:11:27.501Z,16.30
2019-02-12T06:13:55.389Z,23.50
2019-02-12T06:16:23.077Z,15.20
2019-02-12T06:18:50.778Z,19.77
2019-02-12T06:21:18.501Z,13.07
2019-02-12T06:23:46.250Z,18.33
2019-02-12T06:26:14.023Z,19.70
2019-02-12T06:28:41.713Z,15.57
2019-02-12T06:31:09.451Z,11.13
2019-02-12T06:33:37.175Z,15.13
2019-02-12T06:36:04.894Z,19.70
2019-02-12T06:38:32.677Z,16.33
2019-02-12T06:41:00.366Z,19.83
2019-02-12T06:43:28.126Z,17.57
2019-02-12T06:45:55.858Z,14.07
2019-02-12T06:48:23.565Z,19.37
2019-02-12T06:50:51.353Z,19.57
2019-02-12T06:53:19.062Z,22.43
2019-02-12T06:55:46.793Z,20.80
2019-02-12T06:58:14.679Z,23.60
2019-02-12T07:00:42.414Z,23.77
2019-02-12T07:03:17.644Z,23.00
2019-02-12T07:06:04.565Z,14.43
2019-02-12T07:08:56.775Z,20.50
2019-02-12T07:12:03.262Z,14.93
2019-02-12T07:14:45.535Z,22.83
2019-02-12T07:17:56.365Z,17.53
2019-02-12T07:21:06.019Z,18.13
2019-02-12T07:23:58.229Z,13.83
2019-02-12T07:26:58.716Z,13.10
2019-02-12T07:30:17.262Z,14.20
2019-02-12T07:33:35.320Z,14.87
2019-02-12T07:36:28.213Z,15.63
2019-02-12T07:39:22.771Z,19.77
2019-02-12T07:42:29.985Z,23.90
2019-02-12T07:45:29.801Z,24.40
2019-02-12T07:48:33.678Z,32.40
2019-02-12T07:51:53.854Z,19.07
2019-02-12T07:54:52.903Z,25.30
2019-02-12T07:57:49.289Z,29.53
2019-02-12T08:00:50.148Z,35.87
2019-02-12T08:04:10.570Z,23.20
2019-02-12T08:07:29.220Z,22.13
2019-02-12T08:10:30.741Z,18.60
2019-02-12T08:13:46.354Z,16.80
2019-02-12T08:16:26.921Z,24.40
2019-02-12T08:19:32.585Z,25.17
2019-02-12T08:22:45.304Z,30.37
2019-02-12T08:25:39.333Z,22.07
2019-02-12T08:28:36.673Z,22.73
2019-02-12T08:31:30.961Z,27.77
2019-02-12T08:34:35.271Z,21.93
2019-02-12T08:37:25.866Z,16.27
2019-02-12T08:40:24.745Z,19.83
2019-02-12T08:43:01.930Z,19.90
2019-02-12T08:46:01.799Z,23.70
2019-02-12T08:48:50.235Z,40.33
2019-02-12T08:52:10.769Z,16.93
2019-02-12T08:54:48.078Z,25.07
2019-02-12T08:57:44.137Z,19.13
2019-02-12T09:00:48.747Z,19.13
2019-02-12T09:03:57.879Z,15.97
2019-02-12T09:07:03.605Z,26.17
2019-02-12T09:10:08.866Z,22.93
2019-02-12T09:13:30.797Z,23.50
2019-02-12T09:16:46.318Z,21.80
2019-02-12T09:19:31.073Z,30.50
2019-02-12T09:22:11.068Z,24.20
2019-02-12T09:25:08.369Z,25.30
2019-02-12T09:28:25.442Z,34.17
2019-02-12T09:31:29.911Z,24.23
2019-02-12T09:34:13.971Z,26.83
2019-02-12T09:37:04.296Z,31.00
2019-02-12T09:40:03.321Z,21.90
2019-02-12T09:43:10.523Z,20.13
2019-02-12T09:46:07.167Z,23.97
2019-02-12T09:49:17.003Z,19.67
2019-02-12T09:52:26.246Z,19.57
2019-02-12T09:55:12.769Z,20.20
2019-02-12T09:58:06.118Z,20.67
2019-02-12T10:01:10.022Z,23.60
2019-02-12T10:04:29.917Z,19.73
2019-02-12T10:07:31.888Z,26.90
2019-02-12T10:10:36.708Z,21.83
2019-02-12T10:13:10.605Z,16.53
2019-02-12T10:16:05.670Z,19.37
2019-02-12T10:19:07.129Z,21.60
2019-02-12T10:22:12.153Z,24.47
2019-02-12T10:24:56.229Z,27.07
2019-02-12T10:28:11.838Z,28.67
2019-02-12T10:31:04.948Z,27.07
2019-02-12T10:33:32.727Z,30.90
2019-02-12T10:36:00.506Z,32.63
2019-02-12T10:38:28.234Z,33.50
2019-02-12T10:40:56.026Z,30.73
2019-02-12T10:43:23.755Z,23.93
2019-02-12T10:45:51.490Z,25.10
2019-02-12T10:48:19.197Z,24.60
2019-02-12T10:50:46.932Z,19.93
2019-02-12T10:53:14.639Z,25.90
2019-02-12T10:55:42.374Z,16.13
2019-02-12T10:58:10.151Z,15.40
2019-02-12T11:00:37.934Z,17.40
2019-02-12T11:03:05.667Z,16.20
2019-02-12T11:05:33.384Z,20.73
2019-02-12T11:08:01.139Z,19.30
2019-02-12T11:10:28.906Z,10.93
2019-02-12T11:12:56.665Z,16.00
2019-02-12T11:15:24.670Z,17.27
2019-02-12T11:17:52.403Z,15.88
2019-02-12T11:20:20.097Z,15.60
2019-02-12T11:22:47.825Z,12.23
2019-02-12T11:25:15.549Z,11.90
2019-02-12T11:27:43.283Z,11.63
2019-02-12T11:30:11.052Z,9.87
2019-02-12T11:32:38.758Z,14.03
2019-02-12T11:35:07.125Z,10.63
2019-02-12T11:37:36.667Z,12.17
2019-02-12T11:40:05.073Z,13.47
2019-02-12T11:42:32.806Z,10.23
2019-02-12T11:45:00.518Z,12.87
2019-02-12T11:47:28.623Z,11.80
2019-02-12T11:49:56.377Z,9.20
2019-02-12T11:52:24.303Z,8.43
2019-02-12T11:54:52.048Z,11.00
2019-02-12T11:57:19.753Z,11.90
2019-02-12T11:59:47.493Z,10.17
2019-02-12T12:02:22.500Z,10.53
2019-02-12T12:04:50.217Z,12.40
2019-02-12T12:07:17.921Z,11.60
2019-02-12T12:09:45.657Z,12.90
2019-02-12T12:12:13.362Z,11.67
2019-02-12T12:14:41.062Z,9.07
2019-02-12T12:17:08.793Z,9.57
2019-02-12T12:19:36.501Z,9.57
2019-02-12T12:22:04.245Z,14.17
2019-02-12T12:24:32.023Z,11.40
2019-02-12T12:27:00.700Z,10.10
2019-02-12T12:29:28.317Z,9.00
2019-02-12T12:31:56.049Z,8.30
2019-02-12T12:34:23.772Z,7.27
2019-02-12T12:36:51.552Z,9.03
2019-02-12T12:39:19.274Z,11.77
2019-02-12T12:41:46.999Z,9.53
2019-02-12T12:44:14.718Z,9.20
2019-02-12T12:46:42.456Z,6.93
2019-02-12T12:49:10.165Z,8.83
2019-02-12T12:51:37.889Z,5.30
2019-02-12T12:54:05.614Z,5.37
2019-02-12T12:56:33.603Z,6.00
2019-02-12T12:59:02.301Z,5.07
2019-02-12T13:01:30.045Z,4.27
2019-02-12T13:03:57.761Z,8.53
2019-02-12T13:06:25.485Z,8.28
2019-02-12T13:08:53.217Z,5.30
2019-02-12T13:11:20.955Z,12.20
2019-02-12T13:13:48.751Z,5.33
2019-02-12T13:16:16.681Z,9.87
2019-02-12T13:18:44.581Z,11.63
2019-02-12T13:21:12.326Z,5.80
2019-02-12T13:23:40.324Z,9.23
2019-02-12T13:26:08.354Z,10.07
2019-02-12T13:28:36.117Z,5.70
2019-02-12T13:31:03.964Z,7.03
2019-02-12T13:33:31.699Z,5.30
2019-02-12T13:36:01.389Z,5.60
2019-02-12T13:38:29.523Z,5.67
2019-02-12T13:40:57.227Z,12.33
2019-02-12T13:43:25.010Z,15.87
2019-02-12T13:45:52.962Z,5.83
2019-02-12T13:48:20.689Z,8.83
2019-02-12T13:50:48.491Z,3.90
2019-02-12T13:53:16.509Z,5.77
2019-02-12T13:55:44.221Z,7.07
2019-02-12T13:58:11.948Z,5.07
2019-02-12T14:00:39.656Z,6.83
2019-02-12T14:03:07.597Z,11.27
2019-02-12T14:05:35.323Z,5.47
2019-02-12T14:08:04.707Z,7.10
2019-02-12T14:10:32.584Z,4.00
2019-02-12T14:13:00.322Z,5.27
2019-02-12T14:15:28.026Z,4.00
2019-02-12T14:17:56.172Z,4.93
2019-02-12T14:20:24.022Z,11.70
2019-02-12T14:22:51.736Z,4.13
2019-02-12T14:25:25.302Z,3.20
2019-02-12T14:27:49.021Z,3.37
2019-02-12T14:30:16.730Z,2.13
2019-02-12T14:32:44.493Z,3.77
2019-02-12T14:35:12.227Z,3.70
2019-02-12T14:37:40.031Z,2.60
2019-02-12T14:40:08.894Z,3.67
2019-02-12T14:42:36.637Z,3.30
2019-02-12T14:45:05.742Z,2.37
2019-02-12T14:47:33.444Z,1.97
2019-02-12T14:50:01.174Z,2.73
2019-02-12T14:52:28.962Z,2.67
2019-02-12T14:54:56.694Z,2.03
2019-02-12T14:57:24.412Z,2.10
2019-02-12T14:59:52.149Z,3.07
2019-02-12T15:02:20.243Z,5.90
2019-02-12T15:04:47.989Z,2.27
2019-02-12T15:07:16.734Z,9.03
2019-02-12T15:09:44.926Z,3.50
2019-02-12T15:12:16.845Z,2.47
2019-02-12T15:14:45.709Z,3.83
2019-02-12T15:17:16.102Z,3.23
2019-02-12T15:19:44.165Z,3.03
2019-02-12T15:22:16.096Z,5.13
2019-02-12T15:24:44.693Z,2.97
2019-02-12T15:27:17.852Z,3.20
2019-02-12T15:29:49.215Z,5.10
2019-02-12T15:32:16.867Z,3.17
2019-02-12T15:34:44.609Z,2.60
2019-02-12T15:37:12.657Z,2.90
2019-02-12T15:39:45.076Z,2.40
2019-02-12T15:42:14.633Z,3.60
2019-02-12T15:44:42.357Z,6.03
2019-02-12T15:47:10.881Z,2.10
2019-02-12T15:49:38.918Z,2.83
2019-02-12T15:52:06.911Z,1.87
2019-02-12T15:54:34.915Z,5.07
2019-02-12T15:57:02.637Z,6.33
2019-02-12T15:59:33.475Z,6.17
2019-02-12T16:02:02.382Z,6.20
2019-02-12T16:04:30.162Z,4.63
2019-02-12T16:06:59.817Z,7.13
2019-02-12T16:09:31.143Z,3.90
2019-02-12T16:11:58.871Z,3.20
2019-02-12T16:14:27.885Z,3.37
2019-02-12T16:16:55.935Z,3.83
2019-02-12T16:19:23.963Z,6.50
2019-02-12T16:21:53.021Z,3.83
2019-02-12T16:24:21.866Z,5.83
2019-02-12T16:26:49.888Z,3.50
2019-02-12T16:29:18.217Z,2.07
2019-02-12T16:31:45.961Z,4.53
2019-02-12T16:34:14.754Z,8.73
2019-02-12T16:36:47.142Z,6.17
2019-02-12T16:39:14.420Z,3.93
2019-02-12T16:41:42.909Z,8.53
2019-02-12T16:44:12.876Z,6.57
2019-02-12T16:46:40.769Z,10.28
2019-02-12T16:49:11.573Z,10.23
2019-02-12T16:51:40.389Z,7.73
2019-02-12T16:54:11.281Z,6.40
2019-02-12T16:56:41.875Z,8.80
2019-02-12T16:59:11.592Z,8.93
2019-02-12T17:01:41.366Z,8.80
2019-02-12T17:04:13.337Z,14.57
2019-02-12T17:06:41.077Z,5.13
2019-02-12T17:09:09.025Z,12.87
2019-02-12T17:11:36.771Z,6.83
2019-02-12T17:14:04.877Z,12.73
2019-02-12T17:16:32.621Z,6.43
2019-02-12T17:19:02.597Z,11.60
2019-02-12T17:21:30.369Z,9.80
2019-02-12T17:23:58.082Z,20.83
2019-02-12T17:26:25.822Z,15.83
2019-02-12T17:28:53.533Z,33.50
2019-02-12T17:31:21.266Z,17.27
2019-02-12T17:33:48.986Z,11.00
2019-02-12T17:36:16.706Z,8.20
2019-02-12T17:38:44.444Z,19.27
2019-02-12T17:41:12.175Z,12.57
2019-02-12T17:43:39.929Z,7.47
2019-02-12T17:46:07.637Z,14.33
2019-02-12T17:48:35.372Z,12.10
2019-02-12T17:51:03.080Z,9.30
2019-02-12T17:53:31.064Z,10.47
2019-02-12T17:55:58.816Z,7.70
2019-02-12T17:58:26.584Z,13.00
2019-02-12T18:00:54.301Z,14.03
2019-02-12T18:03:22.039Z,10.13
2019-02-12T18:05:49.738Z,11.27
2019-02-12T18:08:19.274Z,10.77
2019-02-12T18:10:47.020Z,12.67
2019-02-12T18:13:14.946Z,18.00
2019-02-12T18:15:42.681Z,18.83
2019-02-12T18:18:10.417Z,8.37
2019-02-12T18:20:38.149Z,17.23
2019-02-12T18:23:05.889Z,19.80
2019-02-12T18:25:33.602Z,17.33
2019-02-12T18:28:01.329Z,17.33
2019-02-12T18:30:29.040Z,30.50
2019-02-12T18:32:56.761Z,35.60
2019-02-12T18:35:24.475Z,40.53
2019-02-12T18:37:52.227Z,35.37
2019-02-12T18:40:20.036Z,28.03
2019-02-12T18:42:47.771Z,33.37
2019-02-12T18:45:15.813Z,23.63
2019-02-12T18:47:43.574Z,27.73
2019-02-12T18:50:11.558Z,47.87
2019-02-12T18:52:39.246Z,47.73
2019-02-12T18:55:07.716Z,29.93
2019-02-12T18:57:35.457Z,39.03
2019-02-12T19:00:03.809Z,47.60
2019-02-12T19:02:31.842Z,43.97
2019-02-12T19:05:01.289Z,35.63
2019-02-12T19:07:29.001Z,33.67
2019-02-12T19:09:56.745Z,28.03
2019-02-12T19:12:24.526Z,21.83
2019-02-12T19:14:52.292Z,20.87
2019-02-12T19:17:20.001Z,22.30
2019-02-12T19:19:47.722Z,28.70
2019-02-12T19:22:15.441Z,21.90
2019-02-12T19:24:43.226Z,20.37
2019-02-12T19:27:10.942Z,34.63
2019-02-12T19:29:38.719Z,27.27
2019-02-12T19:32:06.449Z,27.87
2019-02-12T19:34:34.173Z,27.40
2019-02-12T19:37:01.895Z,33.03
2019-02-12T19:39:29.629Z,44.77
2019-02-12T19:41:57.425Z,39.83
2019-02-12T19:44:25.193Z,36.80
2019-02-12T19:46:52.972Z,42.73
2019-02-12T19:49:20.695Z,40.80
2019-02-12T19:51:48.420Z,44.57
2019-02-12T19:54:16.145Z,41.70
2019-02-12T19:56:43.917Z,51.83
2019-02-12T19:59:11.685Z,55.60
2019-02-12T20:01:39.430Z,91.23
2019-02-12T20:04:07.291Z,96.73
2019-02-12T20:06:35.021Z,82.60
2019-02-12T20:09:05.110Z,79.73
2019-02-12T20:11:32.853Z,87.10
2019-02-12T20:14:00.655Z,55.40
2019-02-12T20:16:28.415Z,44.90
2019-02-12T20:18:56.133Z,46.67
2019-02-12T20:21:23.868Z,49.37
2019-02-12T20:23:51.597Z,51.27
2019-02-12T20:26:19.327Z,41.03
2019-02-12T20:28:47.037Z,40.47
2019-02-12T20:31:14.777Z,38.87
2019-02-12T20:33:42.519Z,44.93
2019-02-12T20:36:10.267Z,50.43
2019-02-12T20:38:37.998Z,49.20
2019-02-12T20:41:05.756Z,50.60
2019-02-12T20:43:33.464Z,48.50
2019-02-12T20:46:01.289Z,45.40
2019-02-12T20:48:29.009Z,54.40
2019-02-12T20:50:56.808Z,55.93
2019-02-12T20:53:24.524Z,45.00
2019-02-12T20:55:52.285Z,45.63
2019-02-12T20:58:19.997Z,50.47
2019-02-12T21:00:47.740Z,58.53
2019-02-12T21:03:15.508Z,52.83
2019-02-12T21:05:43.270Z,56.50
2019-02-12T21:08:10.980Z,57.90
2019-02-12T21:10:38.709Z,52.73
2019-02-12T21:13:06.415Z,56.80
2019-02-12T21:15:34.138Z,55.90
2019-02-12T21:18:01.981Z,58.40
2019-02-12T21:20:29.705Z,61.33
2019-02-12T21:22:57.488Z,54.90
2019-02-12T21:25:25.210Z,57.77
2019-02-12T21:27:52.921Z,60.63
2019-02-12T21:30:20.752Z,48.70
2019-02-12T21:32:48.601Z,51.23
2019-02-12T21:35:16.319Z,45.87
2019-02-12T21:37:44.046Z,46.63
2019-02-12T21:40:19.265Z,50.03
2019-02-12T21:42:48.063Z,47.17
2019-02-12T21:45:15.804Z,41.43
2019-02-12T21:47:43.541Z,33.60
2019-02-12T21:50:11.237Z,31.17
2019-02-12T21:52:38.997Z,37.10
2019-02-12T21:55:07.725Z,36.43
2019-02-12T21:57:35.506Z,35.27
2019-02-12T22:00:03.473Z,34.67
2019-02-12T22:02:31.221Z,34.37
2019-02-12T22:04:58.944Z,30.20
2019-02-12T22:07:26.679Z,33.97
2019-02-12T22:09:54.435Z,34.73
2019-02-12T22:12:22.150Z,31.30
2019-02-12T22:14:49.857Z,30.57
2019-02-12T22:17:17.585Z,28.10
2019-02-12T22:19:45.305Z,30.10
2019-02-12T22:22:13.041Z,26.20
2019-02-12T22:24:41.657Z,34.53
2019-02-12T22:27:09.419Z,35.27
2019-02-12T22:29:37.155Z,28.90
2019-02-12T22:32:04.901Z,34.47
2019-02-12T22:34:32.642Z,34.37
2019-02-12T22:37:00.490Z,37.80
2019-02-12T22:39:28.225Z,43.30
2019-02-12T22:41:55.966Z,35.77
2019-02-12T22:44:23.709Z,35.47
2019-02-12T22:46:51.432Z,48.63
2019-02-12T22:49:19.152Z,44.80
2019-02-12T22:51:46.909Z,45.27
2019-02-12T22:54:14.638Z,42.23
2019-02-12T22:56:42.418Z,35.70
2019-02-12T22:59:10.150Z,37.27
2019-02-12T23:01:38.945Z,38.37
2019-02-12T23:04:06.717Z,39.87
2019-02-12T23:06:34.433Z,36.70
2019-02-12T23:09:03.978Z,35.60
2019-02-12T23:11:31.701Z,32.80
2019-02-12T23:13:59.491Z,37.33
2019-02-12T23:16:27.211Z,32.80
2019-02-12T23:18:54.937Z,33.27
2019-02-12T23:21:22.664Z,31.13
2019-02-12T23:23:50.382Z,28.20
2019-02-12T23:26:18.094Z,27.97
2019-02-12T23:28:45.820Z,26.40
2019-02-12T23:31:13.525Z,27.53
2019-02-12T23:33:41.269Z,25.47
2019-02-12T23:36:08.996Z,30.33
2019-02-12T23:38:36.725Z,31.50
2019-02-12T23:41:04.429Z,34.60
2019-02-12T23:43:32.214Z,34.07
2019-02-12T23:45:59.981Z,34.10
2019-02-12T23:48:27.774Z,27.30
2019-02-12T23:50:55.506Z,29.80
2019-02-12T23:53:23.233Z,33.23
2019-02-12T23:55:50.956Z,40.57
2019-02-12T23:58:18.668Z,31.07
